sensor_id;sensor_type;location;lat;lon;timestamp;P1;durP1;ratioP1;P2;durP2;ratioP2
12441;SDS011;6285;48.804;9.220;2023-06-22T00:00:43;8.73;;;7.82;;
12441;SDS011;6285;48.804;9.220;2023-06-22T00:03:10;8.27;;;7.38;;
12441;SDS011;6285;48.804;9.220;2023-06-22T00:05:37;9.45;;;8.48;;
12441;SDS011;6285;48.804;9.220;2023-06-22T00:08:05;9.07;;;7.82;;
12441;SDS011;6285;48.804;9.220;2023-06-22T00:10:32;7.22;;;6.53;;
12441;SDS011;6285;48.804;9.220;2023-06-22T00:12:59;10.13;;;7.80;;
12441;SDS011;6285;48.804;9.220;2023-06-22T00:15:27;8.23;;;7.15;;
12441;SDS011;6285;48.804;9.220;2023-06-22T00:17:54;9.60;;;7.90;;
12441;SDS011;6285;48.804;9.220;2023-06-22T00:20:23;11.77;;;7.40;;
12441;SDS011;6285;48.804;9.220;2023-06-22T00:22:52;14.57;;;8.18;;
12441;SDS011;6285;48.804;9.220;2023-06-22T00:25:20;8.88;;;7.55;;
12441;SDS011;6285;48.804;9.220;2023-06-22T00:27:48;10.00;;;8.70;;
12441;SDS011;6285;48.804;9.220;2023-06-22T00:30:15;11.55;;;8.50;;
12441;SDS011;6285;48.804;9.220;2023-06-22T00:32:43;10.32;;;7.60;;
12441;SDS011;6285;48.804;9.220;2023-06-22T00:35:11;9.80;;;8.32;;
12441;SDS011;6285;48.804;9.220;2023-06-22T00:37:38;11.32;;;8.65;;
12441;SDS011;6285;48.804;9.220;2023-06-22T00:40:07;8.45;;;7.75;;
12441;SDS011;6285;48.804;9.220;2023-06-22T00:42:36;11.73;;;8.82;;
12441;SDS011;6285;48.804;9.220;2023-06-22T00:45:04;11.20;;;8.55;;
12441;SDS011;6285;48.804;9.220;2023-06-22T00:47:32;9.85;;;8.95;;
12441;SDS011;6285;48.804;9.220;2023-06-22T00:50:02;11.82;;;8.90;;
12441;SDS011;6285;48.804;9.220;2023-06-22T00:52:29;10.10;;;8.68;;
12441;SDS011;6285;48.804;9.220;2023-06-22T00:54:58;10.45;;;8.52;;
12441;SDS011;6285;48.804;9.220;2023-06-22T00:57:27;14.25;;;9.85;;
12441;SDS011;6285;48.804;9.220;2023-06-22T00:59:55;9.95;;;8.55;;
12441;SDS011;6285;48.804;9.220;2023-06-22T01:02:22;9.75;;;8.73;;
12441;SDS011;6285;48.804;9.220;2023-06-22T01:04:49;9.43;;;7.90;;
12441;SDS011;6285;48.804;9.220;2023-06-22T01:07:19;12.40;;;9.90;;
12441;SDS011;6285;48.804;9.220;2023-06-22T01:09:50;11.07;;;8.23;;
12441;SDS011;6285;48.804;9.220;2023-06-22T01:12:18;10.45;;;8.82;;
12441;SDS011;6285;48.804;9.220;2023-06-22T01:14:47;8.27;;;7.47;;
12441;SDS011;6285;48.804;9.220;2023-06-22T01:17:17;9.82;;;8.02;;
12441;SDS011;6285;48.804;9.220;2023-06-22T01:19:46;10.77;;;8.50;;
12441;SDS011;6285;48.804;9.220;2023-06-22T01:22:22;10.23;;;9.07;;
12441;SDS011;6285;48.804;9.220;2023-06-22T01:24:53;12.45;;;8.45;;
12441;SDS011;6285;48.804;9.220;2023-06-22T01:27:31;12.50;;;9.07;;
12441;SDS011;6285;48.804;9.220;2023-06-22T01:30:01;12.93;;;9.27;;
12441;SDS011;6285;48.804;9.220;2023-06-22T01:32:30;10.48;;;9.32;;
12441;SDS011;6285;48.804;9.220;2023-06-22T01:34:58;10.77;;;7.95;;
12441;SDS011;6285;48.804;9.220;2023-06-22T01:37:26;12.18;;;8.68;;
12441;SDS011;6285;48.804;9.220;2023-06-22T01:39:54;10.38;;;8.48;;
12441;SDS011;6285;48.804;9.220;2023-06-22T01:42:22;10.35;;;9.10;;
12441;SDS011;6285;48.804;9.220;2023-06-22T01:44:50;11.20;;;8.90;;
12441;SDS011;6285;48.804;9.220;2023-06-22T01:47:20;10.32;;;8.60;;
12441;SDS011;6285;48.804;9.220;2023-06-22T01:49:47;11.45;;;9.30;;
12441;SDS011;6285;48.804;9.220;2023-06-22T01:52:16;10.30;;;8.90;;
12441;SDS011;6285;48.804;9.220;2023-06-22T01:54:45;9.93;;;8.93;;
12441;SDS011;6285;48.804;9.220;2023-06-22T01:57:13;11.32;;;9.20;;
12441;SDS011;6285;48.804;9.220;2023-06-22T01:59:42;11.02;;;9.82;;
12441;SDS011;6285;48.804;9.220;2023-06-22T02:02:13;10.82;;;8.65;;
12441;SDS011;6285;48.804;9.220;2023-06-22T02:04:44;12.20;;;9.35;;
12441;SDS011;6285;48.804;9.220;2023-06-22T02:07:14;10.13;;;9.05;;
12441;SDS011;6285;48.804;9.220;2023-06-22T02:09:43;10.50;;;9.45;;
12441;SDS011;6285;48.804;9.220;2023-06-22T02:12:11;9.57;;;8.52;;
12441;SDS011;6285;48.804;9.220;2023-06-22T02:14:39;12.13;;;8.82;;
12441;SDS011;6285;48.804;9.220;2023-06-22T02:17:08;13.35;;;9.63;;
12441;SDS011;6285;48.804;9.220;2023-06-22T02:19:35;13.40;;;9.50;;
12441;SDS011;6285;48.804;9.220;2023-06-22T02:22:04;10.73;;;9.27;;
12441;SDS011;6285;48.804;9.220;2023-06-22T02:24:31;10.43;;;9.32;;
12441;SDS011;6285;48.804;9.220;2023-06-22T02:26:58;11.07;;;9.20;;
12441;SDS011;6285;48.804;9.220;2023-06-22T02:29:26;11.13;;;9.20;;
12441;SDS011;6285;48.804;9.220;2023-06-22T02:31:53;11.45;;;9.70;;
12441;SDS011;6285;48.804;9.220;2023-06-22T02:34:20;12.00;;;9.38;;
12441;SDS011;6285;48.804;9.220;2023-06-22T02:36:48;11.50;;;9.77;;
12441;SDS011;6285;48.804;9.220;2023-06-22T02:39:18;11.05;;;8.98;;
12441;SDS011;6285;48.804;9.220;2023-06-22T02:41:47;12.25;;;9.65;;
12441;SDS011;6285;48.804;9.220;2023-06-22T02:44:14;12.65;;;9.77;;
12441;SDS011;6285;48.804;9.220;2023-06-22T02:46:41;12.18;;;8.88;;
12441;SDS011;6285;48.804;9.220;2023-06-22T02:49:09;9.77;;;8.57;;
12441;SDS011;6285;48.804;9.220;2023-06-22T02:51:37;10.70;;;9.45;;
12441;SDS011;6285;48.804;9.220;2023-06-22T02:54:05;11.93;;;9.25;;
12441;SDS011;6285;48.804;9.220;2023-06-22T02:56:33;10.85;;;9.13;;
12441;SDS011;6285;48.804;9.220;2023-06-22T02:59:01;11.32;;;9.52;;
12441;SDS011;6285;48.804;9.220;2023-06-22T03:01:28;13.35;;;9.13;;
12441;SDS011;6285;48.804;9.220;2023-06-22T03:04:02;11.13;;;8.48;;
12441;SDS011;6285;48.804;9.220;2023-06-22T03:06:29;8.82;;;7.97;;
12441;SDS011;6285;48.804;9.220;2023-06-22T03:08:58;10.48;;;8.88;;
12441;SDS011;6285;48.804;9.220;2023-06-22T03:11:25;12.88;;;9.65;;
12441;SDS011;6285;48.804;9.220;2023-06-22T03:13:54;11.23;;;9.23;;
12441;SDS011;6285;48.804;9.220;2023-06-22T03:16:21;10.98;;;9.43;;
12441;SDS011;6285;48.804;9.220;2023-06-22T03:18:48;10.95;;;9.43;;
12441;SDS011;6285;48.804;9.220;2023-06-22T03:21:15;10.95;;;9.50;;
12441;SDS011;6285;48.804;9.220;2023-06-22T03:23:43;12.10;;;9.65;;
12441;SDS011;6285;48.804;9.220;2023-06-22T03:26:10;10.80;;;9.60;;
12441;SDS011;6285;48.804;9.220;2023-06-22T03:28:38;14.77;;;9.93;;
12441;SDS011;6285;48.804;9.220;2023-06-22T03:31:06;13.75;;;10.40;;
12441;SDS011;6285;48.804;9.220;2023-06-22T03:33:33;12.10;;;10.20;;
12441;SDS011;6285;48.804;9.220;2023-06-22T03:36:00;14.60;;;9.88;;
12441;SDS011;6285;48.804;9.220;2023-06-22T03:38:27;13.73;;;9.88;;
12441;SDS011;6285;48.804;9.220;2023-06-22T03:40:54;11.50;;;10.00;;
12441;SDS011;6285;48.804;9.220;2023-06-22T03:43:22;16.55;;;10.07;;
12441;SDS011;6285;48.804;9.220;2023-06-22T03:45:50;11.30;;;10.10;;
12441;SDS011;6285;48.804;9.220;2023-06-22T03:48:18;11.18;;;9.90;;
12441;SDS011;6285;48.804;9.220;2023-06-22T03:50:45;11.52;;;9.77;;
12441;SDS011;6285;48.804;9.220;2023-06-22T03:53:13;17.35;;;10.27;;
12441;SDS011;6285;48.804;9.220;2023-06-22T03:55:42;12.00;;;9.55;;
12441;SDS011;6285;48.804;9.220;2023-06-22T03:58:15;11.30;;;9.85;;
12441;SDS011;6285;48.804;9.220;2023-06-22T04:00:43;14.48;;;9.80;;
12441;SDS011;6285;48.804;9.220;2023-06-22T04:03:11;13.55;;;10.23;;
12441;SDS011;6285;48.804;9.220;2023-06-22T04:05:39;14.05;;;9.80;;
12441;SDS011;6285;48.804;9.220;2023-06-22T04:08:07;14.15;;;10.77;;
12441;SDS011;6285;48.804;9.220;2023-06-22T04:10:34;12.50;;;9.80;;
12441;SDS011;6285;48.804;9.220;2023-06-22T04:13:01;11.35;;;9.15;;
12441;SDS011;6285;48.804;9.220;2023-06-22T04:15:28;13.18;;;9.80;;
12441;SDS011;6285;48.804;9.220;2023-06-22T04:17:56;12.60;;;9.82;;
12441;SDS011;6285;48.804;9.220;2023-06-22T04:20:23;12.70;;;9.73;;
12441;SDS011;6285;48.804;9.220;2023-06-22T04:22:52;11.88;;;9.70;;
12441;SDS011;6285;48.804;9.220;2023-06-22T04:25:20;12.25;;;10.35;;
12441;SDS011;6285;48.804;9.220;2023-06-22T04:27:47;10.25;;;8.85;;
12441;SDS011;6285;48.804;9.220;2023-06-22T04:30:14;12.00;;;10.70;;
12441;SDS011;6285;48.804;9.220;2023-06-22T04:32:42;12.85;;;9.77;;
12441;SDS011;6285;48.804;9.220;2023-06-22T04:35:09;11.05;;;9.95;;
12441;SDS011;6285;48.804;9.220;2023-06-22T04:37:36;11.27;;;8.93;;
12441;SDS011;6285;48.804;9.220;2023-06-22T04:40:06;10.60;;;8.90;;
12441;SDS011;6285;48.804;9.220;2023-06-22T04:42:34;12.48;;;9.07;;
12441;SDS011;6285;48.804;9.220;2023-06-22T04:45:01;11.13;;;9.80;;
12441;SDS011;6285;48.804;9.220;2023-06-22T04:47:29;11.88;;;9.38;;
12441;SDS011;6285;48.804;9.220;2023-06-22T04:49:56;13.43;;;9.60;;
12441;SDS011;6285;48.804;9.220;2023-06-22T04:52:23;12.48;;;9.30;;
12441;SDS011;6285;48.804;9.220;2023-06-22T04:54:51;12.60;;;9.75;;
12441;SDS011;6285;48.804;9.220;2023-06-22T04:57:22;12.15;;;8.30;;
12441;SDS011;6285;48.804;9.220;2023-06-22T04:59:57;11.52;;;8.02;;
12441;SDS011;6285;48.804;9.220;2023-06-22T05:02:32;11.70;;;10.55;;
12441;SDS011;6285;48.804;9.220;2023-06-22T05:04:59;8.50;;;7.70;;
12441;SDS011;6285;48.804;9.220;2023-06-22T05:07:31;13.68;;;10.00;;
12441;SDS011;6285;48.804;9.220;2023-06-22T05:09:58;11.80;;;9.43;;
12441;SDS011;6285;48.804;9.220;2023-06-22T05:12:27;9.75;;;8.75;;
12441;SDS011;6285;48.804;9.220;2023-06-22T05:14:54;12.02;;;9.07;;
12441;SDS011;6285;48.804;9.220;2023-06-22T05:17:22;11.45;;;8.57;;
12441;SDS011;6285;48.804;9.220;2023-06-22T05:19:49;11.02;;;9.30;;
12441;SDS011;6285;48.804;9.220;2023-06-22T05:22:16;12.25;;;8.43;;
12441;SDS011;6285;48.804;9.220;2023-06-22T05:24:43;11.70;;;9.65;;
12441;SDS011;6285;48.804;9.220;2023-06-22T05:27:11;11.18;;;8.68;;
12441;SDS011;6285;48.804;9.220;2023-06-22T05:29:39;10.70;;;8.63;;
12441;SDS011;6285;48.804;9.220;2023-06-22T05:32:07;10.23;;;8.70;;
12441;SDS011;6285;48.804;9.220;2023-06-22T05:34:35;14.75;;;9.70;;
12441;SDS011;6285;48.804;9.220;2023-06-22T05:37:02;10.25;;;8.95;;
12441;SDS011;6285;48.804;9.220;2023-06-22T05:39:29;9.90;;;8.20;;
12441;SDS011;6285;48.804;9.220;2023-06-22T05:41:56;9.95;;;8.95;;
12441;SDS011;6285;48.804;9.220;2023-06-22T05:44:23;9.88;;;6.70;;
12441;SDS011;6285;48.804;9.220;2023-06-22T05:46:52;9.07;;;7.85;;
12441;SDS011;6285;48.804;9.220;2023-06-22T05:49:19;12.40;;;7.85;;
12441;SDS011;6285;48.804;9.220;2023-06-22T05:51:47;9.40;;;7.30;;
12441;SDS011;6285;48.804;9.220;2023-06-22T05:54:14;10.05;;;8.10;;
12441;SDS011;6285;48.804;9.220;2023-06-22T05:56:43;8.05;;;7.25;;
12441;SDS011;6285;48.804;9.220;2023-06-22T05:59:10;22.83;;;7.70;;
12441;SDS011;6285;48.804;9.220;2023-06-22T06:01:37;10.95;;;6.82;;
12441;SDS011;6285;48.804;9.220;2023-06-22T06:04:06;9.68;;;7.75;;
12441;SDS011;6285;48.804;9.220;2023-06-22T06:06:34;8.88;;;7.55;;
12441;SDS011;6285;48.804;9.220;2023-06-22T06:09:02;9.07;;;7.50;;
12441;SDS011;6285;48.804;9.220;2023-06-22T06:11:29;9.23;;;7.88;;
12441;SDS011;6285;48.804;9.220;2023-06-22T06:13:57;9.70;;;8.25;;
12441;SDS011;6285;48.804;9.220;2023-06-22T06:16:24;7.95;;;7.10;;
12441;SDS011;6285;48.804;9.220;2023-06-22T06:18:51;9.07;;;7.40;;
12441;SDS011;6285;48.804;9.220;2023-06-22T06:21:21;10.68;;;7.63;;
12441;SDS011;6285;48.804;9.220;2023-06-22T06:23:47;9.02;;;7.65;;
12441;SDS011;6285;48.804;9.220;2023-06-22T06:26:15;9.23;;;7.55;;
12441;SDS011;6285;48.804;9.220;2023-06-22T06:28:42;11.05;;;7.35;;
12441;SDS011;6285;48.804;9.220;2023-06-22T06:31:09;8.88;;;7.55;;
12441;SDS011;6285;48.804;9.220;2023-06-22T06:33:37;10.25;;;7.88;;
12441;SDS011;6285;48.804;9.220;2023-06-22T06:36:04;8.10;;;7.30;;
12441;SDS011;6285;48.804;9.220;2023-06-22T06:38:34;9.43;;;7.57;;
12441;SDS011;6285;48.804;9.220;2023-06-22T06:41:01;8.95;;;7.20;;
12441;SDS011;6285;48.804;9.220;2023-06-22T06:43:28;8.43;;;7.50;;
12441;SDS011;6285;48.804;9.220;2023-06-22T06:45:55;8.10;;;7.07;;
12441;SDS011;6285;48.804;9.220;2023-06-22T06:48:22;9.40;;;7.35;;
12441;SDS011;6285;48.804;9.220;2023-06-22T06:50:48;10.05;;;7.20;;
12441;SDS011;6285;48.804;9.220;2023-06-22T06:53:15;11.77;;;8.18;;
12441;SDS011;6285;48.804;9.220;2023-06-22T06:55:43;9.55;;;6.25;;
12441;SDS011;6285;48.804;9.220;2023-06-22T06:58:10;10.52;;;6.43;;
12441;SDS011;6285;48.804;9.220;2023-06-22T07:00:38;8.73;;;7.40;;
12441;SDS011;6285;48.804;9.220;2023-06-22T07:03:05;7.15;;;6.20;;
12441;SDS011;6285;48.804;9.220;2023-06-22T07:05:33;10.07;;;6.72;;
12441;SDS011;6285;48.804;9.220;2023-06-22T07:08:00;7.93;;;6.90;;
12441;SDS011;6285;48.804;9.220;2023-06-22T07:10:27;7.68;;;6.78;;
12441;SDS011;6285;48.804;9.220;2023-06-22T07:12:56;8.60;;;6.35;;
12441;SDS011;6285;48.804;9.220;2023-06-22T07:15:23;7.68;;;6.38;;
12441;SDS011;6285;48.804;9.220;2023-06-22T07:17:50;7.25;;;6.50;;
12441;SDS011;6285;48.804;9.220;2023-06-22T07:20:17;7.15;;;5.68;;
12441;SDS011;6285;48.804;9.220;2023-06-22T07:22:44;8.63;;;5.85;;
12441;SDS011;6285;48.804;9.220;2023-06-22T07:25:11;8.93;;;6.38;;
12441;SDS011;6285;48.804;9.220;2023-06-22T07:27:43;7.28;;;5.95;;
12441;SDS011;6285;48.804;9.220;2023-06-22T07:30:12;8.07;;;6.70;;
12441;SDS011;6285;48.804;9.220;2023-06-22T07:32:40;6.57;;;5.65;;
12441;SDS011;6285;48.804;9.220;2023-06-22T07:35:07;8.93;;;5.90;;
12441;SDS011;6285;48.804;9.220;2023-06-22T07:37:35;8.43;;;6.20;;
12441;SDS011;6285;48.804;9.220;2023-06-22T07:40:03;9.30;;;5.70;;
12441;SDS011;6285;48.804;9.220;2023-06-22T07:42:31;10.20;;;5.60;;
12441;SDS011;6285;48.804;9.220;2023-06-22T07:44:58;8.32;;;5.38;;
12441;SDS011;6285;48.804;9.220;2023-06-22T07:47:28;9.95;;;5.38;;
12441;SDS011;6285;48.804;9.220;2023-06-22T07:49:54;7.40;;;5.38;;
12441;SDS011;6285;48.804;9.220;2023-06-22T07:52:23;6.28;;;5.43;;
12441;SDS011;6285;48.804;9.220;2023-06-22T07:54:50;11.25;;;5.95;;
12441;SDS011;6285;48.804;9.220;2023-06-22T07:57:18;7.38;;;5.53;;
12441;SDS011;6285;48.804;9.220;2023-06-22T07:59:45;7.22;;;5.65;;
12441;SDS011;6285;48.804;9.220;2023-06-22T08:02:12;8.68;;;5.60;;
12441;SDS011;6285;48.804;9.220;2023-06-22T08:04:41;7.32;;;5.70;;
12441;SDS011;6285;48.804;9.220;2023-06-22T08:07:08;6.47;;;5.68;;
12441;SDS011;6285;48.804;9.220;2023-06-22T08:09:35;9.63;;;5.70;;
12441;SDS011;6285;48.804;9.220;2023-06-22T08:12:02;7.75;;;5.22;;
12441;SDS011;6285;48.804;9.220;2023-06-22T08:14:30;6.85;;;5.18;;
12441;SDS011;6285;48.804;9.220;2023-06-22T08:16:57;8.05;;;5.63;;
12441;SDS011;6285;48.804;9.220;2023-06-22T08:19:24;8.50;;;5.63;;
12441;SDS011;6285;48.804;9.220;2023-06-22T08:21:53;7.30;;;5.50;;
12441;SDS011;6285;48.804;9.220;2023-06-22T08:24:20;8.88;;;5.55;;
12441;SDS011;6285;48.804;9.220;2023-06-22T08:26:47;9.65;;;5.22;;
12441;SDS011;6285;48.804;9.220;2023-06-22T08:29:14;10.13;;;5.80;;
12441;SDS011;6285;48.804;9.220;2023-06-22T08:31:41;9.38;;;5.80;;
12441;SDS011;6285;48.804;9.220;2023-06-22T08:34:08;6.63;;;5.53;;
12441;SDS011;6285;48.804;9.220;2023-06-22T08:36:35;9.70;;;5.53;;
12441;SDS011;6285;48.804;9.220;2023-06-22T08:39:07;9.32;;;5.57;;
12441;SDS011;6285;48.804;9.220;2023-06-22T08:41:34;6.68;;;5.47;;
12441;SDS011;6285;48.804;9.220;2023-06-22T08:44:01;6.55;;;5.45;;
12441;SDS011;6285;48.804;9.220;2023-06-22T08:46:29;6.93;;;5.47;;
12441;SDS011;6285;48.804;9.220;2023-06-22T08:48:58;7.45;;;6.18;;
12441;SDS011;6285;48.804;9.220;2023-06-22T08:51:25;8.38;;;5.72;;
12441;SDS011;6285;48.804;9.220;2023-06-22T08:53:53;11.48;;;6.13;;
12441;SDS011;6285;48.804;9.220;2023-06-22T08:56:22;10.30;;;5.30;;
12441;SDS011;6285;48.804;9.220;2023-06-22T08:58:49;8.30;;;5.70;;
12441;SDS011;6285;48.804;9.220;2023-06-22T09:01:15;8.02;;;5.88;;
12441;SDS011;6285;48.804;9.220;2023-06-22T09:03:42;9.18;;;5.50;;
12441;SDS011;6285;48.804;9.220;2023-06-22T09:06:18;9.27;;;5.75;;
12441;SDS011;6285;48.804;9.220;2023-06-22T09:08:45;10.18;;;5.40;;
12441;SDS011;6285;48.804;9.220;2023-06-22T09:11:13;9.38;;;6.00;;
12441;SDS011;6285;48.804;9.220;2023-06-22T09:13:41;10.00;;;6.10;;
12441;SDS011;6285;48.804;9.220;2023-06-22T09:16:08;11.55;;;5.95;;
12441;SDS011;6285;48.804;9.220;2023-06-22T09:18:36;7.57;;;5.55;;
12441;SDS011;6285;48.804;9.220;2023-06-22T09:21:03;9.00;;;5.88;;
12441;SDS011;6285;48.804;9.220;2023-06-22T09:23:30;8.30;;;5.60;;
12441;SDS011;6285;48.804;9.220;2023-06-22T09:25:57;8.48;;;5.82;;
12441;SDS011;6285;48.804;9.220;2023-06-22T09:28:24;9.82;;;5.90;;
12441;SDS011;6285;48.804;9.220;2023-06-22T09:30:52;10.85;;;6.35;;
12441;SDS011;6285;48.804;9.220;2023-06-22T09:33:23;9.90;;;6.22;;
12441;SDS011;6285;48.804;9.220;2023-06-22T09:35:49;8.00;;;6.07;;
12441;SDS011;6285;48.804;9.220;2023-06-22T09:38:18;11.35;;;6.22;;
12441;SDS011;6285;48.804;9.220;2023-06-22T09:40:44;13.90;;;5.80;;
12441;SDS011;6285;48.804;9.220;2023-06-22T09:43:11;10.23;;;6.28;;
12441;SDS011;6285;48.804;9.220;2023-06-22T09:45:38;8.95;;;5.70;;
12441;SDS011;6285;48.804;9.220;2023-06-22T09:48:07;8.40;;;5.80;;
12441;SDS011;6285;48.804;9.220;2023-06-22T09:50:34;10.57;;;5.75;;
12441;SDS011;6285;48.804;9.220;2023-06-22T09:53:01;9.63;;;6.20;;
12441;SDS011;6285;48.804;9.220;2023-06-22T09:55:28;8.70;;;5.90;;
12441;SDS011;6285;48.804;9.220;2023-06-22T09:57:56;9.73;;;6.47;;
12441;SDS011;6285;48.804;9.220;2023-06-22T10:00:23;9.02;;;6.00;;
12441;SDS011;6285;48.804;9.220;2023-06-22T10:02:51;11.70;;;6.43;;
12441;SDS011;6285;48.804;9.220;2023-06-22T10:05:20;10.32;;;5.93;;
12441;SDS011;6285;48.804;9.220;2023-06-22T10:07:46;9.73;;;6.43;;
12441;SDS011;6285;48.804;9.220;2023-06-22T10:10:13;8.45;;;6.00;;
12441;SDS011;6285;48.804;9.220;2023-06-22T10:12:41;11.02;;;6.03;;
12441;SDS011;6285;48.804;9.220;2023-06-22T10:15:09;9.32;;;6.40;;
12441;SDS011;6285;48.804;9.220;2023-06-22T10:17:36;9.18;;;6.43;;
12441;SDS011;6285;48.804;9.220;2023-06-22T10:20:03;11.55;;;6.57;;
12441;SDS011;6285;48.804;9.220;2023-06-22T10:22:37;10.85;;;6.95;;
12441;SDS011;6285;48.804;9.220;2023-06-22T10:25:05;12.18;;;6.13;;
12441;SDS011;6285;48.804;9.220;2023-06-22T10:27:32;13.57;;;6.50;;
12441;SDS011;6285;48.804;9.220;2023-06-22T10:29:59;12.00;;;6.40;;
12441;SDS011;6285;48.804;9.220;2023-06-22T10:32:26;9.90;;;6.53;;
12441;SDS011;6285;48.804;9.220;2023-06-22T10:34:54;11.30;;;6.25;;
12441;SDS011;6285;48.804;9.220;2023-06-22T10:37:21;13.43;;;6.22;;
12441;SDS011;6285;48.804;9.220;2023-06-22T10:39:49;12.27;;;6.88;;
12441;SDS011;6285;48.804;9.220;2023-06-22T10:42:16;10.25;;;6.88;;
12441;SDS011;6285;48.804;9.220;2023-06-22T10:44:43;12.00;;;6.30;;
12441;SDS011;6285;48.804;9.220;2023-06-22T10:47:10;12.77;;;6.28;;
12441;SDS011;6285;48.804;9.220;2023-06-22T10:49:37;11.68;;;7.47;;
12441;SDS011;6285;48.804;9.220;2023-06-22T10:52:05;10.45;;;6.60;;
12441;SDS011;6285;48.804;9.220;2023-06-22T10:54:33;9.77;;;6.30;;
12441;SDS011;6285;48.804;9.220;2023-06-22T10:57:01;7.80;;;5.32;;
12441;SDS011;6285;48.804;9.220;2023-06-22T10:59:28;12.23;;;6.28;;
12441;SDS011;6285;48.804;9.220;2023-06-22T11:01:55;16.52;;;6.15;;
12441;SDS011;6285;48.804;9.220;2023-06-22T11:04:22;11.18;;;6.45;;
12441;SDS011;6285;48.804;9.220;2023-06-22T11:06:50;15.15;;;6.78;;
12441;SDS011;6285;48.804;9.220;2023-06-22T11:09:17;13.75;;;6.28;;
12441;SDS011;6285;48.804;9.220;2023-06-22T11:11:46;10.93;;;6.00;;
12441;SDS011;6285;48.804;9.220;2023-06-22T11:14:14;12.30;;;6.57;;
12441;SDS011;6285;48.804;9.220;2023-06-22T11:16:41;11.50;;;6.10;;
12441;SDS011;6285;48.804;9.220;2023-06-22T11:19:08;8.68;;;6.25;;
12441;SDS011;6285;48.804;9.220;2023-06-22T11:21:36;11.93;;;8.50;;
12441;SDS011;6285;48.804;9.220;2023-06-22T11:24:03;9.10;;;5.60;;
12441;SDS011;6285;48.804;9.220;2023-06-22T11:26:30;9.65;;;6.15;;
12441;SDS011;6285;48.804;9.220;2023-06-22T11:28:57;10.77;;;6.50;;
12441;SDS011;6285;48.804;9.220;2023-06-22T11:31:26;13.30;;;6.60;;
12441;SDS011;6285;48.804;9.220;2023-06-22T11:33:53;13.35;;;6.15;;
12441;SDS011;6285;48.804;9.220;2023-06-22T11:36:20;7.30;;;6.07;;
12441;SDS011;6285;48.804;9.220;2023-06-22T11:38:47;13.40;;;6.72;;
12441;SDS011;6285;48.804;9.220;2023-06-22T11:41:14;15.55;;;6.45;;
12441;SDS011;6285;48.804;9.220;2023-06-22T11:43:41;11.90;;;6.47;;
12441;SDS011;6285;48.804;9.220;2023-06-22T11:46:08;11.85;;;6.30;;
12441;SDS011;6285;48.804;9.220;2023-06-22T11:48:37;9.75;;;6.40;;
12441;SDS011;6285;48.804;9.220;2023-06-22T11:51:04;11.80;;;6.35;;
12441;SDS011;6285;48.804;9.220;2023-06-22T11:53:31;17.05;;;6.85;;
12441;SDS011;6285;48.804;9.220;2023-06-22T11:55:59;13.65;;;7.13;;
12441;SDS011;6285;48.804;9.220;2023-06-22T11:58:26;13.80;;;6.50;;
12441;SDS011;6285;48.804;9.220;2023-06-22T12:00:53;13.05;;;7.68;;
12441;SDS011;6285;48.804;9.220;2023-06-22T12:03:20;12.38;;;6.70;;
12441;SDS011;6285;48.804;9.220;2023-06-22T12:05:49;12.93;;;7.28;;
12441;SDS011;6285;48.804;9.220;2023-06-22T12:08:16;12.35;;;6.57;;
12441;SDS011;6285;48.804;9.220;2023-06-22T12:10:43;13.82;;;7.20;;
12441;SDS011;6285;48.804;9.220;2023-06-22T12:13:10;14.20;;;7.30;;
12441;SDS011;6285;48.804;9.220;2023-06-22T12:15:37;12.18;;;6.68;;
12441;SDS011;6285;48.804;9.220;2023-06-22T12:18:04;17.70;;;7.68;;
12441;SDS011;6285;48.804;9.220;2023-06-22T12:20:31;11.93;;;7.10;;
12441;SDS011;6285;48.804;9.220;2023-06-22T12:23:00;14.45;;;8.25;;
12441;SDS011;6285;48.804;9.220;2023-06-22T12:25:27;16.25;;;7.13;;
12441;SDS011;6285;48.804;9.220;2023-06-22T12:27:54;15.95;;;7.03;;
12441;SDS011;6285;48.804;9.220;2023-06-22T12:30:22;11.60;;;6.28;;
12441;SDS011;6285;48.804;9.220;2023-06-22T12:32:49;13.18;;;6.90;;
12441;SDS011;6285;48.804;9.220;2023-06-22T12:35:16;15.98;;;8.32;;
12441;SDS011;6285;48.804;9.220;2023-06-22T12:37:43;15.43;;;7.30;;
12441;SDS011;6285;48.804;9.220;2023-06-22T12:40:12;17.33;;;7.35;;
12441;SDS011;6285;48.804;9.220;2023-06-22T12:42:39;13.52;;;6.93;;
12441;SDS011;6285;48.804;9.220;2023-06-22T12:45:07;14.60;;;6.85;;
12441;SDS011;6285;48.804;9.220;2023-06-22T12:47:35;13.98;;;6.50;;
12441;SDS011;6285;48.804;9.220;2023-06-22T12:50:02;15.85;;;7.05;;
12441;SDS011;6285;48.804;9.220;2023-06-22T12:52:29;14.65;;;7.10;;
12441;SDS011;6285;48.804;9.220;2023-06-22T12:54:57;14.60;;;6.97;;
12441;SDS011;6285;48.804;9.220;2023-06-22T12:57:25;14.13;;;6.78;;
12441;SDS011;6285;48.804;9.220;2023-06-22T12:59:52;16.00;;;6.88;;
12441;SDS011;6285;48.804;9.220;2023-06-22T13:02:19;17.40;;;7.93;;
12441;SDS011;6285;48.804;9.220;2023-06-22T13:04:46;13.38;;;7.53;;
12441;SDS011;6285;48.804;9.220;2023-06-22T13:07:13;14.80;;;7.07;;
12441;SDS011;6285;48.804;9.220;2023-06-22T13:09:40;12.32;;;6.95;;
12441;SDS011;6285;48.804;9.220;2023-06-22T13:12:08;14.05;;;8.20;;
12441;SDS011;6285;48.804;9.220;2023-06-22T13:14:36;12.63;;;7.18;;
12441;SDS011;6285;48.804;9.220;2023-06-22T13:17:03;11.27;;;7.47;;
12441;SDS011;6285;48.804;9.220;2023-06-22T13:19:31;13.65;;;6.45;;
12441;SDS011;6285;48.804;9.220;2023-06-22T13:21:58;13.38;;;6.72;;
12441;SDS011;6285;48.804;9.220;2023-06-22T13:24:25;13.68;;;6.63;;
12441;SDS011;6285;48.804;9.220;2023-06-22T13:26:52;16.00;;;6.45;;
12441;SDS011;6285;48.804;9.220;2023-06-22T13:29:20;11.95;;;6.70;;
12441;SDS011;6285;48.804;9.220;2023-06-22T13:31:48;12.27;;;6.40;;
12441;SDS011;6285;48.804;9.220;2023-06-22T13:34:15;12.15;;;6.90;;
12441;SDS011;6285;48.804;9.220;2023-06-22T13:36:42;14.02;;;6.43;;
12441;SDS011;6285;48.804;9.220;2023-06-22T13:39:09;15.82;;;7.18;;
12441;SDS011;6285;48.804;9.220;2023-06-22T13:41:36;16.23;;;7.47;;
12441;SDS011;6285;48.804;9.220;2023-06-22T13:44:03;11.50;;;6.72;;
12441;SDS011;6285;48.804;9.220;2023-06-22T13:46:30;14.77;;;6.85;;
12441;SDS011;6285;48.804;9.220;2023-06-22T13:48:59;11.25;;;6.43;;
12441;SDS011;6285;48.804;9.220;2023-06-22T13:51:26;15.63;;;7.22;;
12441;SDS011;6285;48.804;9.220;2023-06-22T13:53:53;14.65;;;7.45;;
12441;SDS011;6285;48.804;9.220;2023-06-22T13:56:20;13.13;;;6.65;;
12441;SDS011;6285;48.804;9.220;2023-06-22T13:58:47;12.60;;;8.02;;
12441;SDS011;6285;48.804;9.220;2023-06-22T14:01:14;13.02;;;6.70;;
12441;SDS011;6285;48.804;9.220;2023-06-22T14:03:41;13.85;;;7.28;;
12441;SDS011;6285;48.804;9.220;2023-06-22T14:06:12;19.95;;;10.23;;
12441;SDS011;6285;48.804;9.220;2023-06-22T14:08:39;13.80;;;7.60;;
12441;SDS011;6285;48.804;9.220;2023-06-22T14:11:06;10.43;;;6.90;;
12441;SDS011;6285;48.804;9.220;2023-06-22T14:13:33;12.02;;;6.22;;
12441;SDS011;6285;48.804;9.220;2023-06-22T14:16:00;10.20;;;6.35;;
12441;SDS011;6285;48.804;9.220;2023-06-22T14:18:30;12.93;;;6.80;;
12441;SDS011;6285;48.804;9.220;2023-06-22T14:20:57;15.18;;;7.25;;
12441;SDS011;6285;48.804;9.220;2023-06-22T14:23:26;12.50;;;6.45;;
12441;SDS011;6285;48.804;9.220;2023-06-22T14:25:53;15.63;;;6.40;;
12441;SDS011;6285;48.804;9.220;2023-06-22T14:28:20;12.52;;;6.05;;
12441;SDS011;6285;48.804;9.220;2023-06-22T14:30:47;12.43;;;6.50;;
12441;SDS011;6285;48.804;9.220;2023-06-22T14:33:14;11.50;;;5.78;;
12441;SDS011;6285;48.804;9.220;2023-06-22T14:35:41;13.80;;;6.80;;
12441;SDS011;6285;48.804;9.220;2023-06-22T14:38:08;11.38;;;6.35;;
12441;SDS011;6285;48.804;9.220;2023-06-22T14:40:36;13.45;;;5.90;;
12441;SDS011;6285;48.804;9.220;2023-06-22T14:43:03;13.25;;;5.93;;
12441;SDS011;6285;48.804;9.220;2023-06-22T14:45:30;11.80;;;5.85;;
12441;SDS011;6285;48.804;9.220;2023-06-22T14:47:57;14.30;;;5.70;;
12441;SDS011;6285;48.804;9.220;2023-06-22T14:50:24;14.15;;;5.63;;
12441;SDS011;6285;48.804;9.220;2023-06-22T14:52:51;13.30;;;5.97;;